sensor_id;sensor_type;location;lat;lon;timestamp;P1;durP1;ratioP1;P2;durP2;ratioP2
24064;SDS011;12258;50.940;5.330;2022-07-15T00:00:34;7.78;;;2.40;;
24064;SDS011;12258;50.940;5.330;2022-07-15T00:02:59;5.22;;;1.67;;
24064;SDS011;12258;50.940;5.330;2022-07-15T00:05:25;8.75;;;2.70;;
24064;SDS011;12258;50.940;5.330;2022-07-15T00:07:51;5.05;;;2.30;;
24064;SDS011;12258;50.940;5.330;2022-07-15T00:10:17;7.78;;;2.20;;
24064;SDS011;12258;50.940;5.330;2022-07-15T00:12:56;7.43;;;1.83;;
24064;SDS011;12258;50.940;5.330;2022-07-15T00:15:24;5.78;;;2.00;;
24064;SDS011;12258;50.940;5.330;2022-07-15T00:17:54;8.75;;;2.20;;
24064;SDS011;12258;50.940;5.330;2022-07-15T00:20:22;7.35;;;2.28;;
24064;SDS011;12258;50.940;5.330;2022-07-15T00:22:48;8.48;;;2.25;;
24064;SDS011;12258;50.940;5.330;2022-07-15T00:25:14;7.47;;;2.65;;
24064;SDS011;12258;50.940;5.330;2022-07-15T00:27:54;7.25;;;2.05;;
24064;SDS011;12258;50.940;5.330;2022-07-15T00:30:20;9.30;;;2.60;;
24064;SDS011;12258;50.940;5.330;2022-07-15T00:32:47;5.18;;;1.95;;
24064;SDS011;12258;50.940;5.330;2022-07-15T00:35:14;8.45;;;2.53;;
24064;SDS011;12258;50.940;5.330;2022-07-15T00:37:39;7.80;;;2.35;;
24064;SDS011;12258;50.940;5.330;2022-07-15T00:40:05;7.43;;;2.20;;
24064;SDS011;12258;50.940;5.330;2022-07-15T00:42:31;8.23;;;2.03;;
24064;SDS011;12258;50.940;5.330;2022-07-15T00:45:13;9.88;;;2.45;;
24064;SDS011;12258;50.940;5.330;2022-07-15T00:47:41;8.10;;;2.42;;
24064;SDS011;12258;50.940;5.330;2022-07-15T00:50:09;7.32;;;2.22;;
24064;SDS011;12258;50.940;5.330;2022-07-15T00:52:35;7.18;;;2.25;;
24064;SDS011;12258;50.940;5.330;2022-07-15T00:55:05;8.02;;;2.10;;
24064;SDS011;12258;50.940;5.330;2022-07-15T00:57:34;7.47;;;2.10;;
24064;SDS011;12258;50.940;5.330;2022-07-15T01:00:03;13.25;;;2.88;;
24064;SDS011;12258;50.940;5.330;2022-07-15T01:02:31;6.07;;;1.90;;
24064;SDS011;12258;50.940;5.330;2022-07-15T01:04:58;7.75;;;2.55;;
24064;SDS011;12258;50.940;5.330;2022-07-15T01:07:25;6.82;;;2.03;;
24064;SDS011;12258;50.940;5.330;2022-07-15T01:09:51;5.72;;;1.70;;
24064;SDS011;12258;50.940;5.330;2022-07-15T01:12:16;8.85;;;3.15;;
24064;SDS011;12258;50.940;5.330;2022-07-15T01:14:42;9.60;;;2.47;;
24064;SDS011;12258;50.940;5.330;2022-07-15T01:17:11;9.30;;;2.35;;
24064;SDS011;12258;50.940;5.330;2022-07-15T01:19:37;10.73;;;3.45;;
24064;SDS011;12258;50.940;5.330;2022-07-15T01:22:06;11.07;;;2.38;;
24064;SDS011;12258;50.940;5.330;2022-07-15T01:24:32;6.85;;;2.60;;
24064;SDS011;12258;50.940;5.330;2022-07-15T01:26:58;7.82;;;2.00;;
24064;SDS011;12258;50.940;5.330;2022-07-15T01:29:24;4.25;;;1.70;;
24064;SDS011;12258;50.940;5.330;2022-07-15T01:31:49;14.70;;;3.42;;
24064;SDS011;12258;50.940;5.330;2022-07-15T01:34:15;6.25;;;2.60;;
24064;SDS011;12258;50.940;5.330;2022-07-15T01:36:41;8.82;;;2.50;;
24064;SDS011;12258;50.940;5.330;2022-07-15T01:39:06;8.25;;;2.92;;
24064;SDS011;12258;50.940;5.330;2022-07-15T01:41:32;9.80;;;2.58;;
24064;SDS011;12258;50.940;5.330;2022-07-15T01:43:57;7.38;;;2.17;;
24064;SDS011;12258;50.940;5.330;2022-07-15T01:46:23;7.53;;;2.17;;
24064;SDS011;12258;50.940;5.330;2022-07-15T01:48:48;9.27;;;2.42;;
24064;SDS011;12258;50.940;5.330;2022-07-15T01:53:58;9.27;;;2.28;;
24064;SDS011;12258;50.940;5.330;2022-07-15T01:56:23;5.70;;;2.15;;
24064;SDS011;12258;50.940;5.330;2022-07-15T01:58:49;6.93;;;2.42;;
24064;SDS011;12258;50.940;5.330;2022-07-15T02:01:14;6.57;;;1.92;;
24064;SDS011;12258;50.940;5.330;2022-07-15T02:03:43;11.07;;;3.05;;
24064;SDS011;12258;50.940;5.330;2022-07-15T02:06:08;7.13;;;2.55;;
24064;SDS011;12258;50.940;5.330;2022-07-15T02:08:34;7.32;;;2.47;;
24064;SDS011;12258;50.940;5.330;2022-07-15T02:11:00;7.72;;;2.42;;
24064;SDS011;12258;50.940;5.330;2022-07-15T02:13:25;9.18;;;2.55;;
24064;SDS011;12258;50.940;5.330;2022-07-15T02:15:51;6.75;;;2.25;;
24064;SDS011;12258;50.940;5.330;2022-07-15T02:18:16;10.55;;;2.75;;
24064;SDS011;12258;50.940;5.330;2022-07-15T02:20:42;15.57;;;3.03;;
24064;SDS011;12258;50.940;5.330;2022-07-15T02:23:08;9.98;;;3.25;;
24064;SDS011;12258;50.940;5.330;2022-07-15T02:25:34;9.48;;;2.70;;
24064;SDS011;12258;50.940;5.330;2022-07-15T02:28:01;12.40;;;2.15;;
24064;SDS011;12258;50.940;5.330;2022-07-15T02:30:32;8.23;;;2.75;;
24064;SDS011;12258;50.940;5.330;2022-07-15T02:32:59;8.10;;;2.72;;
24064;SDS011;12258;50.940;5.330;2022-07-15T02:35:25;5.13;;;2.38;;
24064;SDS011;12258;50.940;5.330;2022-07-15T02:37:52;7.30;;;2.85;;
24064;SDS011;12258;50.940;5.330;2022-07-15T02:40:17;6.20;;;2.53;;
24064;SDS011;12258;50.940;5.330;2022-07-15T02:42:47;9.60;;;2.45;;
24064;SDS011;12258;50.940;5.330;2022-07-15T02:45:14;11.32;;;3.67;;
24064;SDS011;12258;50.940;5.330;2022-07-15T02:47:39;9.02;;;2.80;;
24064;SDS011;12258;50.940;5.330;2022-07-15T02:50:05;6.15;;;2.83;;
24064;SDS011;12258;50.940;5.330;2022-07-15T02:52:31;7.50;;;2.38;;
24064;SDS011;12258;50.940;5.330;2022-07-15T02:54:56;7.80;;;3.20;;
24064;SDS011;12258;50.940;5.330;2022-07-15T02:57:22;7.18;;;2.80;;
24064;SDS011;12258;50.940;5.330;2022-07-15T02:59:47;6.88;;;3.13;;
24064;SDS011;12258;50.940;5.330;2022-07-15T03:02:12;8.02;;;2.40;;
24064;SDS011;12258;50.940;5.330;2022-07-15T03:04:38;7.38;;;2.92;;
24064;SDS011;12258;50.940;5.330;2022-07-15T03:07:03;7.03;;;3.22;;
24064;SDS011;12258;50.940;5.330;2022-07-15T03:09:29;10.30;;;3.10;;
24064;SDS011;12258;50.940;5.330;2022-07-15T03:11:55;5.43;;;2.55;;
24064;SDS011;12258;50.940;5.330;2022-07-15T03:14:20;7.20;;;3.08;;
24064;SDS011;12258;50.940;5.330;2022-07-15T03:16:45;10.77;;;2.92;;
24064;SDS011;12258;50.940;5.330;2022-07-15T03:19:11;10.25;;;2.90;;
24064;SDS011;12258;50.940;5.330;2022-07-15T03:21:37;9.00;;;2.70;;
24064;SDS011;12258;50.940;5.330;2022-07-15T03:24:02;5.32;;;2.58;;
24064;SDS011;12258;50.940;5.330;2022-07-15T03:26:28;10.38;;;2.97;;
24064;SDS011;12258;50.940;5.330;2022-07-15T03:28:54;6.20;;;2.70;;
24064;SDS011;12258;50.940;5.330;2022-07-15T03:31:20;7.15;;;2.92;;
24064;SDS011;12258;50.940;5.330;2022-07-15T03:33:45;6.15;;;3.30;;
24064;SDS011;12258;50.940;5.330;2022-07-15T03:36:11;9.57;;;3.00;;
24064;SDS011;12258;50.940;5.330;2022-07-15T03:38:36;8.05;;;2.67;;
24064;SDS011;12258;50.940;5.330;2022-07-15T03:41:02;7.43;;;2.70;;
24064;SDS011;12258;50.940;5.330;2022-07-15T03:43:28;8.68;;;3.25;;
24064;SDS011;12258;50.940;5.330;2022-07-15T03:45:55;7.50;;;2.85;;
24064;SDS011;12258;50.940;5.330;2022-07-15T03:48:21;11.02;;;3.15;;
24064;SDS011;12258;50.940;5.330;2022-07-15T03:50:46;11.48;;;3.97;;
24064;SDS011;12258;50.940;5.330;2022-07-15T03:53:12;11.18;;;3.45;;
24064;SDS011;12258;50.940;5.330;2022-07-15T03:55:39;8.75;;;3.30;;
24064;SDS011;12258;50.940;5.330;2022-07-15T03:58:05;11.43;;;3.45;;
24064;SDS011;12258;50.940;5.330;2022-07-15T04:00:30;5.22;;;3.03;;
24064;SDS011;12258;50.940;5.330;2022-07-15T04:02:56;5.78;;;3.20;;
24064;SDS011;12258;50.940;5.330;2022-07-15T04:05:22;7.95;;;3.53;;
24064;SDS011;12258;50.940;5.330;2022-07-15T04:07:48;9.50;;;3.65;;
24064;SDS011;12258;50.940;5.330;2022-07-15T04:10:13;6.25;;;3.22;;
24064;SDS011;12258;50.940;5.330;2022-07-15T04:12:39;7.43;;;3.58;;
24064;SDS011;12258;50.940;5.330;2022-07-15T04:15:06;8.20;;;3.40;;
24064;SDS011;12258;50.940;5.330;2022-07-15T04:17:32;12.77;;;3.55;;
24064;SDS011;12258;50.940;5.330;2022-07-15T04:19:58;7.80;;;3.55;;
24064;SDS011;12258;50.940;5.330;2022-07-15T04:22:23;5.97;;;2.97;;
24064;SDS011;12258;50.940;5.330;2022-07-15T04:24:48;6.55;;;3.13;;
24064;SDS011;12258;50.940;5.330;2022-07-15T04:27:14;6.72;;;3.42;;
24064;SDS011;12258;50.940;5.330;2022-07-15T04:29:40;8.40;;;3.15;;
24064;SDS011;12258;50.940;5.330;2022-07-15T04:32:06;5.30;;;3.17;;
24064;SDS011;12258;50.940;5.330;2022-07-15T04:34:31;11.43;;;4.53;;
24064;SDS011;12258;50.940;5.330;2022-07-15T04:36:57;7.50;;;3.28;;
24064;SDS011;12258;50.940;5.330;2022-07-15T04:39:22;8.35;;;3.50;;
24064;SDS011;12258;50.940;5.330;2022-07-15T04:41:48;6.20;;;3.75;;
24064;SDS011;12258;50.940;5.330;2022-07-15T04:44:16;13.55;;;3.90;;
24064;SDS011;12258;50.940;5.330;2022-07-15T04:46:42;13.38;;;4.13;;
24064;SDS011;12258;50.940;5.330;2022-07-15T04:49:07;10.55;;;4.00;;
24064;SDS011;12258;50.940;5.330;2022-07-15T04:51:51;8.57;;;3.83;;
24064;SDS011;12258;50.940;5.330;2022-07-15T04:54:17;10.95;;;4.57;;
24064;SDS011;12258;50.940;5.330;2022-07-15T04:56:43;10.27;;;4.05;;
24064;SDS011;12258;50.940;5.330;2022-07-15T04:59:08;7.63;;;4.03;;
24064;SDS011;12258;50.940;5.330;2022-07-15T05:01:34;9.05;;;4.03;;
24064;SDS011;12258;50.940;5.330;2022-07-15T05:03:59;8.32;;;3.70;;
24064;SDS011;12258;50.940;5.330;2022-07-15T05:06:26;20.83;;;5.78;;
24064;SDS011;12258;50.940;5.330;2022-07-15T05:08:51;13.65;;;5.00;;
24064;SDS011;12258;50.940;5.330;2022-07-15T05:11:17;9.55;;;4.47;;
24064;SDS011;12258;50.940;5.330;2022-07-15T05:13:43;10.40;;;4.70;;
24064;SDS011;12258;50.940;5.330;2022-07-15T05:16:08;8.48;;;4.55;;
24064;SDS011;12258;50.940;5.330;2022-07-15T05:18:35;9.52;;;4.43;;
24064;SDS011;12258;50.940;5.330;2022-07-15T05:21:00;12.45;;;5.03;;
24064;SDS011;12258;50.940;5.330;2022-07-15T05:23:26;12.00;;;4.80;;
24064;SDS011;12258;50.940;5.330;2022-07-15T05:25:52;14.85;;;5.50;;
24064;SDS011;12258;50.940;5.330;2022-07-15T05:28:17;7.75;;;4.30;;
24064;SDS011;12258;50.940;5.330;2022-07-15T05:30:42;14.88;;;4.53;;
24064;SDS011;12258;50.940;5.330;2022-07-15T05:33:08;10.05;;;4.47;;
24064;SDS011;12258;50.940;5.330;2022-07-15T05:35:34;11.82;;;5.22;;
24064;SDS011;12258;50.940;5.330;2022-07-15T05:37:59;12.27;;;5.35;;
24064;SDS011;12258;50.940;5.330;2022-07-15T05:40:25;20.85;;;6.20;;
24064;SDS011;12258;50.940;5.330;2022-07-15T05:42:51;9.73;;;4.80;;
24064;SDS011;12258;50.940;5.330;2022-07-15T05:45:16;8.35;;;4.78;;
24064;SDS011;12258;50.940;5.330;2022-07-15T05:47:48;16.13;;;6.63;;
24064;SDS011;12258;50.940;5.330;2022-07-15T05:50:15;7.90;;;4.88;;
24064;SDS011;12258;50.940;5.330;2022-07-15T05:52:41;18.52;;;7.40;;
24064;SDS011;12258;50.940;5.330;2022-07-15T05:55:06;11.60;;;5.28;;
24064;SDS011;12258;50.940;5.330;2022-07-15T05:57:32;13.77;;;6.43;;
24064;SDS011;12258;50.940;5.330;2022-07-15T05:59:58;16.77;;;7.22;;
24064;SDS011;12258;50.940;5.330;2022-07-15T06:02:23;11.52;;;6.53;;
24064;SDS011;12258;50.940;5.330;2022-07-15T06:04:49;9.90;;;5.10;;
24064;SDS011;12258;50.940;5.330;2022-07-15T06:07:15;11.63;;;5.75;;
24064;SDS011;12258;50.940;5.330;2022-07-15T06:09:40;18.45;;;5.10;;
24064;SDS011;12258;50.940;5.330;2022-07-15T06:12:06;11.52;;;5.15;;
24064;SDS011;12258;50.940;5.330;2022-07-15T06:14:34;13.20;;;6.07;;
24064;SDS011;12258;50.940;5.330;2022-07-15T06:17:00;12.77;;;4.95;;
24064;SDS011;12258;50.940;5.330;2022-07-15T06:19:25;12.77;;;5.38;;
24064;SDS011;12258;50.940;5.330;2022-07-15T06:21:51;13.90;;;4.97;;
24064;SDS011;12258;50.940;5.330;2022-07-15T06:24:17;14.00;;;6.05;;
24064;SDS011;12258;50.940;5.330;2022-07-15T06:26:42;11.85;;;4.18;;
24064;SDS011;12258;50.940;5.330;2022-07-15T06:29:08;15.73;;;4.15;;
24064;SDS011;12258;50.940;5.330;2022-07-15T06:31:33;15.63;;;5.05;;
24064;SDS011;12258;50.940;5.330;2022-07-15T06:33:58;11.18;;;4.55;;
24064;SDS011;12258;50.940;5.330;2022-07-15T06:36:25;10.55;;;3.80;;
24064;SDS011;12258;50.940;5.330;2022-07-15T06:38:51;8.90;;;2.80;;
24064;SDS011;12258;50.940;5.330;2022-07-15T06:41:16;18.13;;;3.25;;
24064;SDS011;12258;50.940;5.330;2022-07-15T06:43:43;8.20;;;2.83;;
24064;SDS011;12258;50.940;5.330;2022-07-15T06:46:09;15.38;;;3.30;;
24064;SDS011;12258;50.940;5.330;2022-07-15T06:48:35;15.20;;;3.63;;
24064;SDS011;12258;50.940;5.330;2022-07-15T06:51:01;10.95;;;3.33;;
24064;SDS011;12258;50.940;5.330;2022-07-15T06:53:26;7.28;;;2.67;;
24064;SDS011;12258;50.940;5.330;2022-07-15T06:55:52;13.15;;;2.83;;
24064;SDS011;12258;50.940;5.330;2022-07-15T06:58:17;13.10;;;2.70;;
24064;SDS011;12258;50.940;5.330;2022-07-15T07:00:43;12.73;;;2.90;;
24064;SDS011;12258;50.940;5.330;2022-07-15T07:03:09;7.18;;;1.98;;
24064;SDS011;12258;50.940;5.330;2022-07-15T07:05:34;8.30;;;2.17;;
24064;SDS011;12258;50.940;5.330;2022-07-15T07:07:59;6.63;;;2.25;;
24064;SDS011;12258;50.940;5.330;2022-07-15T07:10:25;4.80;;;1.75;;
24064;SDS011;12258;50.940;5.330;2022-07-15T07:12:51;8.45;;;2.05;;
24064;SDS011;12258;50.940;5.330;2022-07-15T07:15:17;11.50;;;1.90;;
24064;SDS011;12258;50.940;5.330;2022-07-15T07:17:44;16.35;;;2.22;;
24064;SDS011;12258;50.940;5.330;2022-07-15T07:20:09;7.28;;;2.20;;
24064;SDS011;12258;50.940;5.330;2022-07-15T07:22:35;7.88;;;1.67;;
24064;SDS011;12258;50.940;5.330;2022-07-15T07:25:01;6.57;;;1.60;;
24064;SDS011;12258;50.940;5.330;2022-07-15T07:27:27;12.05;;;2.47;;
24064;SDS011;12258;50.940;5.330;2022-07-15T07:29:52;9.27;;;2.42;;
24064;SDS011;12258;50.940;5.330;2022-07-15T07:32:18;6.80;;;1.80;;
24064;SDS011;12258;50.940;5.330;2022-07-15T07:34:44;6.28;;;1.55;;
24064;SDS011;12258;50.940;5.330;2022-07-15T07:37:09;7.75;;;1.45;;
24064;SDS011;12258;50.940;5.330;2022-07-15T07:39:35;6.80;;;1.35;;
24064;SDS011;12258;50.940;5.330;2022-07-15T07:42:00;5.70;;;1.40;;
24064;SDS011;12258;50.940;5.330;2022-07-15T07:44:26;5.68;;;1.52;;
24064;SDS011;12258;50.940;5.330;2022-07-15T07:46:52;5.53;;;1.10;;
24064;SDS011;12258;50.940;5.330;2022-07-15T07:49:17;6.35;;;1.77;;
24064;SDS011;12258;50.940;5.330;2022-07-15T07:51:43;2.33;;;0.93;;
24064;SDS011;12258;50.940;5.330;2022-07-15T07:54:08;6.63;;;1.30;;
24064;SDS011;12258;50.940;5.330;2022-07-15T07:56:34;3.63;;;1.10;;
24064;SDS011;12258;50.940;5.330;2022-07-15T07:59:00;6.28;;;1.23;;
24064;SDS011;12258;50.940;5.330;2022-07-15T08:01:26;5.85;;;1.13;;
24064;SDS011;12258;50.940;5.330;2022-07-15T08:03:52;3.83;;;1.10;;
24064;SDS011;12258;50.940;5.330;2022-07-15T08:06:17;5.10;;;1.17;;
24064;SDS011;12258;50.940;5.330;2022-07-15T08:08:43;7.03;;;1.30;;
24064;SDS011;12258;50.940;5.330;2022-07-15T08:11:10;6.30;;;1.33;;
24064;SDS011;12258;50.940;5.330;2022-07-15T08:13:36;8.98;;;1.58;;
24064;SDS011;12258;50.940;5.330;2022-07-15T08:16:01;7.95;;;1.25;;
24064;SDS011;12258;50.940;5.330;2022-07-15T08:18:27;7.43;;;0.93;;
24064;SDS011;12258;50.940;5.330;2022-07-15T08:20:53;3.28;;;0.90;;
24064;SDS011;12258;50.940;5.330;2022-07-15T08:23:18;8.45;;;1.83;;
24064;SDS011;12258;50.940;5.330;2022-07-15T08:25:47;7.47;;;0.90;;
24064;SDS011;12258;50.940;5.330;2022-07-15T08:28:14;5.47;;;1.10;;
24064;SDS011;12258;50.940;5.330;2022-07-15T08:30:40;3.33;;;1.00;;
24064;SDS011;12258;50.940;5.330;2022-07-15T08:33:06;3.05;;;1.35;;
24064;SDS011;12258;50.940;5.330;2022-07-15T08:35:31;5.38;;;0.98;;
24064;SDS011;12258;50.940;5.330;2022-07-15T08:37:57;3.20;;;1.02;;
24064;SDS011;12258;50.940;5.330;2022-07-15T08:40:23;2.92;;;1.10;;
24064;SDS011;12258;50.940;5.330;2022-07-15T08:42:51;3.75;;;0.90;;
24064;SDS011;12258;50.940;5.330;2022-07-15T08:45:16;4.25;;;1.00;;
24064;SDS011;12258;50.940;5.330;2022-07-15T08:47:43;4.63;;;1.13;;
24064;SDS011;12258;50.940;5.330;2022-07-15T08:50:12;4.53;;;1.38;;
24064;SDS011;12258;50.940;5.330;2022-07-15T08:52:41;4.20;;;1.17;;
24064;SDS011;12258;50.940;5.330;2022-07-15T08:55:08;3.70;;;1.40;;
24064;SDS011;12258;50.940;5.330;2022-07-15T08:57:34;6.82;;;0.70;;
24064;SDS011;12258;50.940;5.330;2022-07-15T09:00:01;1.77;;;0.65;;
24064;SDS011;12258;50.940;5.330;2022-07-15T09:02:32;2.25;;;0.88;;
24064;SDS011;12258;50.940;5.330;2022-07-15T09:07:52;3.00;;;0.75;;
24064;SDS011;12258;50.940;5.330;2022-07-15T09:10:21;2.85;;;1.10;;
24064;SDS011;12258;50.940;5.330;2022-07-15T09:12:50;7.13;;;1.00;;
24064;SDS011;12258;50.940;5.330;2022-07-15T09:15:32;3.10;;;1.20;;
24064;SDS011;12258;50.940;5.330;2022-07-15T09:18:08;3.90;;;1.20;;
24064;SDS011;12258;50.940;5.330;2022-07-15T09:20:37;4.32;;;0.88;;
24064;SDS011;12258;50.940;5.330;2022-07-15T09:23:04;4.70;;;1.10;;
24064;SDS011;12258;50.940;5.330;2022-07-15T09:25:30;3.75;;;0.68;;
24064;SDS011;12258;50.940;5.330;2022-07-15T09:28:02;2.20;;;0.90;;
24064;SDS011;12258;50.940;5.330;2022-07-15T09:30:40;2.28;;;0.60;;
24064;SDS011;12258;50.940;5.330;2022-07-15T09:33:26;3.83;;;0.82;;
24064;SDS011;12258;50.940;5.330;2022-07-15T09:36:19;4.65;;;0.90;;
24064;SDS011;12258;50.940;5.330;2022-07-15T09:41:37;3.03;;;0.60;;
24064;SDS011;12258;50.940;5.330;2022-07-15T09:49:15;2.25;;;0.82;;
24064;SDS011;12258;50.940;5.330;2022-07-15T09:51:49;2.22;;;0.82;;
24064;SDS011;12258;50.940;5.330;2022-07-15T09:54:18;2.72;;;0.70;;
24064;SDS011;12258;50.940;5.330;2022-07-15T09:56:45;5.60;;;1.30;;
24064;SDS011;12258;50.940;5.330;2022-07-15T09:59:11;2.60;;;0.65;;
24064;SDS011;12258;50.940;5.330;2022-07-15T10:01:36;1.63;;;0.70;;
24064;SDS011;12258;50.940;5.330;2022-07-15T10:04:03;2.38;;;1.13;;
24064;SDS011;12258;50.940;5.330;2022-07-15T10:06:29;3.55;;;0.70;;
24064;SDS011;12258;50.940;5.330;2022-07-15T10:08:58;3.00;;;0.80;;
24064;SDS011;12258;50.940;5.330;2022-07-15T10:11:24;3.40;;;0.93;;
24064;SDS011;12258;50.940;5.330;2022-07-15T10:17:19;2.28;;;0.70;;
24064;SDS011;12258;50.940;5.330;2022-07-15T10:29:02;4.00;;;0.80;;
24064;SDS011;12258;50.940;5.330;2022-07-15T10:31:31;2.67;;;0.55;;
24064;SDS011;12258;50.940;5.330;2022-07-15T10:39:15;3.30;;;1.10;;
24064;SDS011;12258;50.940;5.330;2022-07-15T10:41:55;3.80;;;0.82;;
24064;SDS011;12258;50.940;5.330;2022-07-15T10:44:33;5.95;;;0.90;;
24064;SDS011;12258;50.940;5.330;2022-07-15T10:54:40;2.35;;;0.70;;
24064;SDS011;12258;50.940;5.330;2022-07-15T10:57:07;1.52;;;0.43;;
24064;SDS011;12258;50.940;5.330;2022-07-15T10:59:38;6.47;;;1.48;;
24064;SDS011;12258;50.940;5.330;2022-07-15T11:04:32;2.97;;;0.50;;
24064;SDS011;12258;50.940;5.330;2022-07-15T11:12:08;4.03;;;0.65;;
24064;SDS011;12258;50.940;5.330;2022-07-15T11:14:53;1.45;;;0.57;;
24064;SDS011;12258;50.940;5.330;2022-07-15T11:20:07;1.35;;;0.75;;
24064;SDS011;12258;50.940;5.330;2022-07-15T11:22:37;3.13;;;0.65;;
24064;SDS011;12258;50.940;5.330;2022-07-15T11:25:29;3.55;;;1.00;;
24064;SDS011;12258;50.940;5.330;2022-07-15T11:30:43;1.60;;;0.45;;
24064;SDS011;12258;50.940;5.330;2022-07-15T11:33:18;2.28;;;0.68;;
24064;SDS011;12258;50.940;5.330;2022-07-15T11:35:55;0.70;;;0.50;;
24064;SDS011;12258;50.940;5.330;2022-07-15T11:38:23;2.25;;;0.70;;
24064;SDS011;12258;50.940;5.330;2022-07-15T11:40:56;1.27;;;0.40;;
24064;SDS011;12258;50.940;5.330;2022-07-15T11:43:42;2.10;;;0.52;;
24064;SDS011;12258;50.940;5.330;2022-07-15T11:46:27;1.35;;;0.40;;
24064;SDS011;12258;50.940;5.330;2022-07-15T11:48:55;2.08;;;0.60;;
24064;SDS011;12258;50.940;5.330;2022-07-15T11:51:25;2.15;;;0.80;;
24064;SDS011;12258;50.940;5.330;2022-07-15T11:53:52;2.35;;;0.80;;
24064;SDS011;12258;50.940;5.330;2022-07-15T11:56:18;2.97;;;0.98;;
24064;SDS011;12258;50.940;5.330;2022-07-15T11:58:46;4.80;;;0.50;;
24064;SDS011;12258;50.940;5.330;2022-07-15T12:01:20;1.42;;;0.47;;
24064;SDS011;12258;50.940;5.330;2022-07-15T12:03:48;1.13;;;0.40;;
24064;SDS011;12258;50.940;5.330;2022-07-15T12:06:31;2.92;;;0.60;;
24064;SDS011;12258;50.940;5.330;2022-07-15T12:08:58;1.60;;;0.50;;
24064;SDS011;12258;50.940;5.330;2022-07-15T12:11:29;1.75;;;0.52;;
24064;SDS011;12258;50.940;5.330;2022-07-15T12:14:00;4.75;;;0.70;;
24064;SDS011;12258;50.940;5.330;2022-07-15T12:18:59;2.10;;;0.60;;
24064;SDS011;12258;50.940;5.330;2022-07-15T12:21:27;2.15;;;0.57;;
24064;SDS011;12258;50.940;5.330;2022-07-15T12:29:15;1.38;;;0.60;;
24064;SDS011;12258;50.940;5.330;2022-07-15T12:31:50;2.55;;;0.82;;
24064;SDS011;12258;50.940;5.330;2022-07-15T12:40:02;6.25;;;0.88;;
24064;SDS011;12258;50.940;5.330;2022-07-15T12:50:27;2.42;;;0.82;;
24064;SDS011;12258;50.940;5.330;2022-07-15T12:53:00;2.85;;;0.70;;
24064;SDS011;12258;50.940;5.330;2022-07-15T12:55:28;2.67;;;0.70;;
24064;SDS011;12258;50.940;5.330;2022-07-15T12:58:05;7.97;;;0.60;;
24064;SDS011;12258;50.940;5.330;2022-07-15T13:00:33;3.88;;;0.65;;
24064;SDS011;12258;50.940;5.330;2022-07-15T13:05:28;3.85;;;0.77;;
24064;SDS011;12258;50.940;5.330;2022-07-15T13:07:55;1.20;;;0.40;;
24064;SDS011;12258;50.940;5.330;2022-07-15T13:10:22;2.90;;;0.90;;
24064;SDS011;12258;50.940;5.330;2022-07-15T13:12:48;2.15;;;0.50;;
24064;SDS011;12258;50.940;5.330;2022-07-15T13:15:13;1.55;;;1.00;;
24064;SDS011;12258;50.940;5.330;2022-07-15T13:17:39;3.58;;;0.70;;
24064;SDS011;12258;50.940;5.330;2022-07-15T13:20:04;1.48;;;0.60;;
24064;SDS011;12258;50.940;5.330;2022-07-15T13:22:31;1.85;;;0.63;;
24064;SDS011;12258;50.940;5.330;2022-07-15T13:24:57;1.80;;;0.63;;
24064;SDS011;12258;50.940;5.330;2022-07-15T13:27:23;2.30;;;0.60;;
24064;SDS011;12258;50.940;5.330;2022-07-15T13:29:49;2.78;;;1.02;;
24064;SDS011;12258;50.940;5.330;2022-07-15T13:32:14;2.80;;;0.80;;
24064;SDS011;12258;50.940;5.330;2022-07-15T13:34:40;4.00;;;0.73;;
24064;SDS011;12258;50.940;5.330;2022-07-15T13:37:05;1.23;;;0.50;;
24064;SDS011;12258;50.940;5.330;2022-07-15T13:39:30;1.40;;;0.50;;
24064;SDS011;12258;50.940;5.330;2022-07-15T13:41:56;1.95;;;0.47;;
24064;SDS011;12258;50.940;5.330;2022-07-15T13:44:22;1.40;;;0.70;;
24064;SDS011;12258;50.940;5.330;2022-07-15T13:46:47;2.08;;;0.60;;
24064;SDS011;12258;50.940;5.330;2022-07-15T13:49:13;1.65;;;0.40;;
24064;SDS011;12258;50.940;5.330;2022-07-15T13:51:38;3.47;;;0.50;;
24064;SDS011;12258;50.940;5.330;2022-07-15T13:54:05;3.72;;;0.65;;
24064;SDS011;12258;50.940;5.330;2022-07-15T13:56:32;1.20;;;0.60;;
24064;SDS011;12258;50.940;5.330;2022-07-15T13:58:57;3.38;;;0.80;;
24064;SDS011;12258;50.940;5.330;2022-07-15T14:01:26;1.40;;;0.60;;
24064;SDS011;12258;50.940;5.330;2022-07-15T14:03:55;4.55;;;0.73;;
24064;SDS011;12258;50.940;5.330;2022-07-15T14:06:21;1.83;;;0.63;;
24064;SDS011;12258;50.940;5.330;2022-07-15T14:08:47;2.20;;;0.60;;
24064;SDS011;12258;50.940;5.330;2022-07-15T14:11:12;2.70;;;0.70;;
24064;SDS011;12258;50.940;5.330;2022-07-15T14:13:38;2.08;;;0.70;;
24064;SDS011;12258;50.940;5.330;2022-07-15T14:16:04;2.90;;;0.82;;
24064;SDS011;12258;50.940;5.330;2022-07-15T14:18:30;1.75;;;0.73;;
24064;SDS011;12258;50.940;5.330;2022-07-15T14:21:09;2.28;;;0.60;;
24064;SDS011;12258;50.940;5.330;2022-07-15T14:23:35;3.45;;;0.63;;
24064;SDS011;12258;50.940;5.330;2022-07-15T14:26:01;1.65;;;0.60;;
24064;SDS011;12258;50.940;5.330;2022-07-15T14:28:27;4.22;;;0.80;;
24064;SDS011;12258;50.940;5.330;2022-07-15T14:30:52;2.17;;;0.63;;
24064;SDS011;12258;50.940;5.330;2022-07-15T14:33:18;1.75;;;0.68;;
24064;SDS011;12258;50.940;5.330;2022-07-15T14:35:43;2.13;;;0.60;;
24064;SDS011;12258;50.940;5.330;2022-07-15T14:38:08;4.10;;;0.73;;
24064;SDS011;12258;50.940;5.330;2022-07-15T14:40:34;4.50;;;0.95;;
24064;SDS011;12258;50.940;5.330;2022-07-15T14:42:59;2.25;;;0.50;;
24064;SDS011;12258;50.940;5.330;2022-07-15T14:45:26;3.08;;;0.80;;
24064;SDS011;12258;50.940;5.330;2022-07-15T14:47:52;2.38;;;0.90;;
24064;SDS011;12258;50.940;5.330;2022-07-15T14:50:17;1.35;;;0.60;;
24064;SDS011;12258;50.940;5.330;2022-07-15T14:52:43;1.92;;;0.65;;
24064;SDS011;12258;50.940;5.330;2022-07-15T14:55:08;1.80;;;0.80;;
24064;SDS011;12258;50.940;5.330;2022-07-15T14:57:33;1.95;;;0.70;;
24064;SDS011;12258;50.940;5.330;2022-07-15T14:59:59;3.03;;;1.08;;
24064;SDS011;12258;50.940;5.330;2022-07-15T15:02:25;4.57;;;0.77;;
24064;SDS011;12258;50.940;5.330;2022-07-15T15:04:50;4.38;;;0.68;;
24064;SDS011;12258;50.940;5.330;2022-07-15T15:07:16;2.47;;;0.60;;
24064;SDS011;12258;50.940;5.330;2022-07-15T15:09:41;1.30;;;0.60;;
24064;SDS011;12258;50.940;5.330;2022-07-15T15:12:07;1.90;;;0.73;;
24064;SDS011;12258;50.940;5.330;2022-07-15T15:14:32;5.40;;;0.60;;
24064;SDS011;12258;50.940;5.330;2022-07-15T15:16:57;3.72;;;0.80;;
24064;SDS011;12258;50.940;5.330;2022-07-15T15:19:23;2.88;;;0.57;;
24064;SDS011;12258;50.940;5.330;2022-07-15T15:21:48;2.15;;;0.88;;
24064;SDS011;12258;50.940;5.330;2022-07-15T15:24:14;3.78;;;0.70;;
24064;SDS011;12258;50.940;5.330;2022-07-15T15:26:39;1.33;;;0.65;;
24064;SDS011;12258;50.940;5.330;2022-07-15T15:29:04;2.33;;;0.68;;
24064;SDS011;12258;50.940;5.330;2022-07-15T15:31:31;3.10;;;0.98;;
24064;SDS011;12258;50.940;5.330;2022-07-15T15:33:56;2.75;;;1.10;;
24064;SDS011;12258;50.940;5.330;2022-07-15T15:36:22;3.83;;;0.88;;
24064;SDS011;12258;50.940;5.330;2022-07-15T15:38:48;2.97;;;0.75;;
24064;SDS011;12258;50.940;5.330;2022-07-15T15:41:13;3.78;;;0.70;;
24064;SDS011;12258;50.940;5.330;2022-07-15T15:43:39;2.13;;;0.80;;
24064;SDS011;12258;50.940;5.330;2022-07-15T15:46:04;4.47;;;0.63;;
24064;SDS011;12258;50.940;5.330;2022-07-15T15:48:30;3.97;;;1.02;;
24064;SDS011;12258;50.940;5.330;2022-07-15T15:50:57;1.00;;;0.63;;
24064;SDS011;12258;50.940;5.330;2022-07-15T15:53:23;2.85;;;1.02;;
24064;SDS011;12258;50.940;5.330;2022-07-15T15:55:49;2.30;;;0.68;;
24064;SDS011;12258;50.940;5.330;2022-07-15T15:58:14;4.25;;;1.10;;
24064;SDS011;12258;50.940;5.330;2022-07-15T16:00:40;9.73;;;1.10;;